createdAt,value
2024-04-30T00:03:49.291Z,15.10
2024-04-30T00:07:52.023Z,15.03
2024-04-30T00:11:54.709Z,14.96
2024-04-30T00:15:57.628Z,14.85
2024-04-30T00:20:00.639Z,14.91
2024-04-30T00:24:06.415Z,15.03
2024-04-30T00:28:10.288Z,15.09
2024-04-30T00:32:13.123Z,15.05
2024-04-30T00:36:16.060Z,14.89
2024-04-30T00:40:19.089Z,14.80
2024-04-30T00:44:21.849Z,14.75
2024-04-30T00:48:27.183Z,14.79
2024-04-30T00:52:32.141Z,14.87
2024-04-30T00:56:36.011Z,14.89
2024-04-30T01:00:40.798Z,14.87
2024-04-30T01:04:44.291Z,14.85
2024-04-30T01:08:47.079Z,14.69
2024-04-30T01:12:50.849Z,14.55
2024-04-30T01:16:53.491Z,14.45
2024-04-30T01:20:56.244Z,14.39
2024-04-30T01:24:59.111Z,14.40
2024-04-30T01:29:02.692Z,14.50
2024-04-30T01:33:05.639Z,14.49
2024-04-30T01:37:08.333Z,14.44
2024-04-30T01:41:11.122Z,14.39
2024-04-30T01:45:13.865Z,14.42
2024-04-30T01:49:16.619Z,14.44
2024-04-30T01:53:20.564Z,14.34
2024-04-30T01:57:23.487Z,14.24
2024-04-30T02:01:26.264Z,14.24
2024-04-30T02:05:35.195Z,14.13
2024-04-30T02:09:38.366Z,14.00
2024-04-30T02:13:46.599Z,13.90
2024-04-30T02:17:49.597Z,13.73
2024-04-30T02:21:57.766Z,13.50
2024-04-30T02:26:04.256Z,13.43
2024-04-30T02:30:53.093Z,13.35
2024-04-30T02:34:57.232Z,13.16
2024-04-30T02:38:59.970Z,13.13
2024-04-30T02:43:02.946Z,13.11
2024-04-30T02:47:06.795Z,13.10
2024-04-30T02:51:09.494Z,13.09
2024-04-30T02:55:12.263Z,13.02
2024-04-30T02:59:16.237Z,12.95
2024-04-30T03:03:18.975Z,12.94
2024-04-30T03:07:22.261Z,12.88
2024-04-30T03:11:25.116Z,12.90
2024-04-30T03:15:30.337Z,12.95
2024-04-30T03:19:35.518Z,12.92
2024-04-30T03:23:39.760Z,12.85
2024-04-30T03:27:42.698Z,12.66
2024-04-30T03:31:45.722Z,12.50
2024-04-30T03:36:00.640Z,12.47
2024-04-30T03:40:03.889Z,12.54
2024-04-30T03:44:07.313Z,12.62
2024-04-30T03:48:10.652Z,12.68
2024-04-30T03:52:13.523Z,12.74
2024-04-30T03:56:16.230Z,12.85
2024-04-30T04:00:20.193Z,12.97
2024-04-30T04:04:23.139Z,13.14
2024-04-30T04:08:25.905Z,13.29
2024-04-30T04:12:46.919Z,13.43
2024-04-30T04:16:49.567Z,13.96
2024-04-30T04:20:52.318Z,14.52
2024-04-30T04:30:48.696Z,16.00
2024-04-30T04:34:59.981Z,17.00
2024-04-30T04:39:02.715Z,18.17
2024-04-30T04:43:08.381Z,19.12
2024-04-30T04:47:12.995Z,19.85
2024-04-30T04:51:15.655Z,20.22
2024-04-30T04:55:45.918Z,19.97
2024-04-30T04:59:48.684Z,19.73
2024-04-30T05:04:20.982Z,19.59
2024-04-30T05:08:23.706Z,19.76
2024-04-30T05:12:28.664Z,19.93
2024-04-30T05:16:31.715Z,20.18
2024-04-30T05:20:37.144Z,20.65
2024-04-30T05:24:39.838Z,21.02
2024-04-30T05:29:39.090Z,21.31
2024-04-30T05:33:41.839Z,21.53
2024-04-30T05:39:02.819Z,21.49
2024-04-30T05:44:20.788Z,21.55
2024-04-30T05:48:23.402Z,21.91
2024-04-30T05:52:26.289Z,22.06
2024-04-30T05:56:28.929Z,22.57
2024-04-30T06:00:31.569Z,23.10
2024-04-30T06:04:39.648Z,23.34
2024-04-30T06:08:42.367Z,23.34
2024-04-30T06:13:38.248Z,23.34
2024-04-30T06:17:40.942Z,23.26
2024-04-30T06:21:45.269Z,23.16
2024-04-30T06:26:13.354Z,23.26
2024-04-30T06:30:16.123Z,23.43
2024-04-30T06:34:18.862Z,23.57
2024-04-30T06:38:21.576Z,23.78
2024-04-30T06:42:24.548Z,24.02
2024-04-30T06:46:33.906Z,24.18
2024-04-30T06:51:04.755Z,24.22
2024-04-30T06:55:07.435Z,24.28
2024-04-30T06:59:10.239Z,24.33
2024-04-30T07:03:12.920Z,24.36
2024-04-30T07:07:21.141Z,24.48
2024-04-30T07:11:24.608Z,24.62
2024-04-30T07:15:29.458Z,24.85
2024-04-30T07:19:33.431Z,24.94
2024-04-30T07:23:38.456Z,25.06
2024-04-30T07:27:44.395Z,25.19
2024-04-30T07:31:51.927Z,25.23
2024-04-30T07:35:57.643Z,25.32
2024-04-30T07:40:02.029Z,25.44
2024-04-30T07:44:06.278Z,25.48
2024-04-30T07:48:11.057Z,25.59
2024-04-30T07:52:18.565Z,25.63
2024-04-30T07:56:22.445Z,25.44
2024-04-30T08:00:26.994Z,25.26
2024-04-30T08:04:32.233Z,25.31
2024-04-30T08:08:38.149Z,25.44
2024-04-30T08:12:42.082Z,25.53
2024-04-30T08:16:46.322Z,25.62
2024-04-30T08:20:50.524Z,25.66
2024-04-30T08:24:54.477Z,25.81
2024-04-30T08:29:49.115Z,26.20
2024-04-30T08:33:53.814Z,26.28
2024-04-30T08:38:01.165Z,26.24
2024-04-30T08:42:06.570Z,26.09
2024-04-30T08:46:12.308Z,25.98
2024-04-30T08:50:21.309Z,25.97
2024-04-30T08:54:34.548Z,26.02
2024-04-30T08:58:42.481Z,26.01
2024-04-30T09:02:53.461Z,26.01
2024-04-30T09:06:58.962Z,25.98
2024-04-30T09:11:03.392Z,26.17
2024-04-30T09:15:16.544Z,26.45
2024-04-30T09:19:28.172Z,26.45
2024-04-30T09:23:33.473Z,26.31
2024-04-30T09:27:36.952Z,26.36
2024-04-30T09:31:40.927Z,26.42
2024-04-30T09:35:50.353Z,26.40
2024-04-30T09:39:54.687Z,26.39
2024-04-30T09:44:00.530Z,26.41
2024-04-30T09:48:10.000Z,26.51
2024-04-30T09:52:16.909Z,26.53
2024-04-30T09:56:22.543Z,26.74
2024-04-30T10:00:28.772Z,26.81
2024-04-30T10:04:34.398Z,26.97
2024-04-30T10:08:44.441Z,27.18
2024-04-30T10:12:48.222Z,27.28
2024-04-30T10:17:05.772Z,27.46
2024-04-30T10:21:13.504Z,27.50
2024-04-30T10:25:27.052Z,27.60
2024-04-30T10:29:31.518Z,27.65
2024-04-30T10:33:36.145Z,27.51
2024-04-30T10:37:40.418Z,27.66
2024-04-30T10:41:50.484Z,27.54
2024-04-30T10:45:54.284Z,27.36
2024-04-30T10:50:16.187Z,27.38
2024-04-30T10:54:25.208Z,27.32
2024-04-30T10:58:32.675Z,27.33
2024-04-30T11:02:40.193Z,27.32
2024-04-30T11:06:50.518Z,27.53
2024-04-30T11:10:54.664Z,27.59
2024-04-30T11:14:58.744Z,27.57
2024-04-30T11:19:03.039Z,27.64
2024-04-30T11:23:07.339Z,27.78
2024-04-30T11:27:13.038Z,27.80
2024-04-30T11:31:17.045Z,27.80
2024-04-30T11:35:22.274Z,27.99
2024-04-30T11:39:26.217Z,28.13
2024-04-30T11:43:30.693Z,27.90
2024-04-30T11:47:34.955Z,27.98
2024-04-30T11:51:39.016Z,28.04
2024-04-30T11:55:44.147Z,27.92
2024-04-30T11:59:47.809Z,28.17
2024-04-30T12:03:52.526Z,28.20
2024-04-30T12:07:59.026Z,28.25
2024-04-30T12:12:05.595Z,28.19
2024-04-30T12:16:09.513Z,28.04
2024-04-30T12:20:13.648Z,28.01
2024-04-30T12:24:17.787Z,28.11
2024-04-30T12:28:23.799Z,28.04
2024-04-30T12:32:27.985Z,28.01
2024-04-30T12:36:36.252Z,27.97
2024-04-30T12:40:40.931Z,28.00
2024-04-30T12:44:45.349Z,28.20
2024-04-30T12:48:49.448Z,28.27
2024-04-30T12:52:54.538Z,28.26
2024-04-30T12:57:00.912Z,28.27
2024-04-30T13:01:07.964Z,28.24
2024-04-30T13:05:13.221Z,28.18
2024-04-30T13:14:00.523Z,28.43
2024-04-30T13:18:04.508Z,28.50
2024-04-30T13:22:11.419Z,28.44
2024-04-30T13:26:15.255Z,28.59
2024-04-30T13:30:21.945Z,28.65
2024-04-30T13:34:25.715Z,28.75
2024-04-30T13:38:33.140Z,28.63
2024-04-30T13:42:36.342Z,28.39
2024-04-30T13:46:53.841Z,28.22
2024-04-30T13:50:56.861Z,28.34
2024-04-30T13:55:01.018Z,28.42
2024-04-30T13:59:57.936Z,28.52
2024-04-30T14:04:00.751Z,28.58
2024-04-30T14:08:03.844Z,28.54
2024-04-30T14:12:12.153Z,28.46
2024-04-30T14:16:16.061Z,28.43
2024-04-30T14:20:19.587Z,28.50
2024-04-30T14:24:24.680Z,28.51
2024-04-30T14:28:27.617Z,28.49
2024-04-30T14:32:30.798Z,28.47
2024-04-30T14:36:37.472Z,28.39
2024-04-30T14:40:49.616Z,28.38
2024-04-30T14:44:54.593Z,28.49
2024-04-30T14:49:13.966Z,28.59
2024-04-30T14:53:17.916Z,28.48
2024-04-30T14:57:24.196Z,28.36
2024-04-30T15:01:27.428Z,28.31
2024-04-30T15:05:32.093Z,28.35
2024-04-30T15:09:37.046Z,28.31
2024-04-30T15:13:39.719Z,28.25
2024-04-30T15:17:42.527Z,28.28
2024-04-30T15:21:45.291Z,28.34
2024-04-30T15:25:50.392Z,28.27
2024-04-30T15:29:53.138Z,28.25
2024-04-30T15:33:56.137Z,28.29
2024-04-30T15:38:05.092Z,28.21
2024-04-30T15:42:07.834Z,28.16
2024-04-30T15:46:10.630Z,28.12
2024-04-30T15:50:40.409Z,27.86
2024-04-30T15:54:43.344Z,27.69
2024-04-30T15:59:43.406Z,27.50
2024-04-30T16:03:46.255Z,27.34
2024-04-30T16:08:04.630Z,27.20
2024-04-30T16:12:07.544Z,27.08
2024-04-30T16:16:16.523Z,26.97
2024-04-30T16:20:23.584Z,26.84
2024-04-30T16:24:26.419Z,26.73
2024-04-30T16:37:56.766Z,26.31
2024-04-30T16:42:00.112Z,26.02
2024-04-30T16:46:05.734Z,25.72
2024-04-30T16:50:08.706Z,25.46
2024-04-30T16:54:39.317Z,25.31
2024-04-30T16:58:42.201Z,25.25
2024-04-30T17:02:44.938Z,25.13
2024-04-30T17:07:12.176Z,24.93
2024-04-30T17:11:14.971Z,24.68
2024-04-30T17:15:18.222Z,24.39
2024-04-30T17:19:21.082Z,24.13
2024-04-30T17:23:23.986Z,23.85
2024-04-30T17:27:30.149Z,23.61
2024-04-30T17:31:34.104Z,23.37
2024-04-30T17:35:37.558Z,23.19
2024-04-30T17:39:40.311Z,22.99
2024-04-30T17:43:43.022Z,22.83
2024-04-30T17:48:03.176Z,22.70
2024-04-30T17:56:29.252Z,22.37
2024-04-30T18:00:32.424Z,22.14
2024-04-30T18:04:35.494Z,21.82
2024-04-30T18:08:38.880Z,21.40
2024-04-30T18:12:42.144Z,21.02
2024-04-30T18:16:45.112Z,20.73
2024-04-30T18:20:48.152Z,20.46
2024-04-30T18:24:51.218Z,20.23
2024-04-30T18:28:57.491Z,19.88
2024-04-30T18:33:00.614Z,19.39
2024-04-30T18:37:07.001Z,18.95
2024-04-30T18:41:20.943Z,18.58
2024-04-30T18:45:31.127Z,18.27
2024-04-30T18:49:34.329Z,18.21
2024-04-30T18:53:37.899Z,18.22
2024-04-30T18:57:40.969Z,18.21
2024-04-30T19:01:49.178Z,18.17
2024-04-30T19:05:52.238Z,18.13
2024-04-30T19:09:55.279Z,18.09
2024-04-30T19:13:58.371Z,18.04
2024-04-30T19:18:01.746Z,17.97
2024-04-30T19:22:05.214Z,17.85
2024-04-30T19:26:14.845Z,17.71
2024-04-30T19:30:19.165Z,17.55
2024-04-30T19:34:22.696Z,17.45
2024-04-30T19:38:25.850Z,17.39
2024-04-30T19:42:30.217Z,17.41
2024-04-30T19:46:33.748Z,17.37
2024-04-30T19:50:36.797Z,17.23
2024-04-30T19:54:39.901Z,17.16
2024-04-30T19:58:44.652Z,17.19
2024-04-30T20:02:51.485Z,17.21
2024-04-30T20:06:54.694Z,17.22
2024-04-30T20:10:57.982Z,17.20
2024-04-30T20:15:01.081Z,17.18
2024-04-30T20:19:04.486Z,17.16
2024-04-30T20:23:07.715Z,17.12
2024-04-30T20:27:11.796Z,17.08
2024-04-30T20:31:15.545Z,17.07
2024-04-30T20:35:18.605Z,17.07
2024-04-30T20:39:21.734Z,17.01
2024-04-30T20:43:25.140Z,16.94
2024-04-30T20:47:28.459Z,16.93
2024-04-30T20:51:31.583Z,16.93
2024-04-30T20:55:34.788Z,16.90
2024-04-30T20:59:38.110Z,16.86
2024-04-30T21:03:41.367Z,16.85
2024-04-30T21:07:45.068Z,16.82
2024-04-30T21:11:48.829Z,16.79
2024-04-30T21:15:55.092Z,16.78
2024-04-30T21:19:58.630Z,16.77
2024-04-30T21:24:01.851Z,16.74
2024-04-30T21:28:05.329Z,16.78
2024-04-30T21:32:09.485Z,16.85
2024-04-30T21:36:13.183Z,16.90
2024-04-30T21:40:17.156Z,16.93
2024-04-30T21:44:20.180Z,16.94
2024-04-30T21:48:23.424Z,16.96
2024-04-30T21:52:26.636Z,17.03
2024-04-30T21:56:30.067Z,17.05
2024-04-30T22:00:33.126Z,17.08
2024-04-30T22:04:36.459Z,17.07
2024-04-30T22:08:40.568Z,17.00
2024-04-30T22:12:44.186Z,16.94
2024-04-30T22:16:47.279Z,16.92
2024-04-30T22:20:50.886Z,16.94
2024-04-30T22:24:54.705Z,16.93
2024-04-30T22:28:58.077Z,16.95
2024-04-30T22:33:01.786Z,16.96
2024-04-30T22:37:05.168Z,16.97
2024-04-30T22:41:08.306Z,17.00
2024-04-30T22:45:11.484Z,17.01
2024-04-30T22:49:14.613Z,17.03
2024-04-30T22:53:17.815Z,17.05
2024-04-30T22:57:20.926Z,17.05
2024-04-30T23:01:24.114Z,17.05
2024-04-30T23:05:27.260Z,17.12
2024-04-30T23:09:31.498Z,17.11
2024-04-30T23:13:34.729Z,17.04
2024-04-30T23:17:37.840Z,16.99
2024-04-30T23:21:41.579Z,16.93
2024-04-30T23:25:44.840Z,16.88
2024-04-30T23:29:48.732Z,16.81
2024-04-30T23:33:52.221Z,16.62
2024-04-30T23:37:55.479Z,16.50
2024-04-30T23:41:58.547Z,16.31
2024-04-30T23:46:02.595Z,16.11
2024-04-30T23:50:06.126Z,15.94
2024-04-30T23:54:10.416Z,15.77
2024-04-30T23:58:13.454Z,15.60
